createdAt,value
2023-03-21T00:02:01.221Z,78.44
2023-03-21T00:04:33.176Z,78.21
2023-03-21T00:07:04.914Z,78.46
2023-03-21T00:09:31.453Z,78.36
2023-03-21T00:12:01.704Z,78.07
2023-03-21T00:14:31.076Z,78.59
2023-03-21T00:16:57.742Z,78.54
2023-03-21T00:19:26.562Z,79.22
2023-03-21T00:22:09.766Z,79.69
2023-03-21T00:24:36.862Z,79.51
2023-03-21T00:27:26.874Z,79.69
2023-03-21T00:29:50.327Z,79.52
2023-03-21T00:32:17.411Z,80.03
2023-03-21T00:34:59.589Z,79.60
2023-03-21T00:37:28.366Z,79.74
2023-03-21T00:39:54.990Z,79.54
2023-03-21T00:42:21.585Z,79.46
2023-03-21T00:44:48.341Z,79.40
2023-03-21T00:47:14.838Z,79.99
2023-03-21T00:49:41.375Z,80.09
2023-03-21T00:52:17.080Z,80.26
2023-03-21T00:54:46.922Z,79.98
2023-03-21T00:57:13.387Z,79.63
2023-03-21T00:59:39.836Z,80.21
2023-03-21T01:02:07.402Z,80.17
2023-03-21T01:04:34.427Z,80.79
2023-03-21T01:07:00.916Z,80.91
2023-03-21T01:09:27.390Z,80.81
2023-03-21T01:11:54.016Z,82.00
2023-03-21T01:14:23.387Z,81.27
2023-03-21T01:16:53.728Z,82.83
2023-03-21T01:19:27.487Z,82.20
2023-03-21T01:21:57.738Z,82.28
2023-03-21T01:24:24.186Z,83.04
2023-03-21T01:26:50.747Z,83.48
2023-03-21T01:29:17.284Z,83.98
2023-03-21T01:31:43.906Z,83.68
2023-03-21T01:34:10.474Z,83.25
2023-03-21T01:36:37.052Z,82.71
2023-03-21T01:39:03.781Z,83.62
2023-03-21T01:41:47.304Z,83.46
2023-03-21T01:44:17.957Z,83.12
2023-03-21T01:46:57.093Z,83.71
2023-03-21T01:49:35.798Z,84.77
2023-03-21T01:52:13.030Z,83.77
2023-03-21T01:54:43.228Z,83.22
2023-03-21T01:57:12.032Z,83.76
2023-03-21T01:59:38.489Z,83.39
2023-03-21T02:02:07.369Z,83.25
2023-03-21T02:04:35.687Z,83.11
2023-03-21T02:07:07.562Z,83.08
2023-03-21T02:09:35.341Z,82.67
2023-03-21T02:12:02.181Z,82.89
2023-03-21T02:14:30.962Z,83.18
2023-03-21T02:17:03.663Z,83.14
2023-03-21T02:19:52.636Z,83.10
2023-03-21T02:22:32.574Z,83.58
2023-03-21T02:25:06.190Z,83.11
2023-03-21T02:28:01.302Z,83.52
2023-03-21T02:30:31.804Z,84.22
2023-03-21T02:33:19.073Z,83.94
2023-03-21T02:36:14.260Z,84.09
2023-03-21T02:38:47.471Z,83.73
2023-03-21T02:41:20.147Z,84.10
2023-03-21T02:43:56.520Z,84.18
2023-03-21T02:46:40.134Z,85.67
2023-03-21T02:49:12.879Z,85.21
2023-03-21T02:51:41.697Z,84.93
2023-03-21T02:54:41.847Z,85.11
2023-03-21T02:56:59.281Z,85.56
2023-03-21T02:59:27.289Z,85.30
2023-03-21T03:01:54.783Z,85.44
2023-03-21T03:04:27.420Z,84.96
2023-03-21T03:06:53.981Z,84.86
2023-03-21T03:09:39.347Z,85.04
2023-03-21T03:12:12.409Z,84.89
2023-03-21T03:15:02.358Z,84.90
2023-03-21T03:17:29.768Z,84.72
2023-03-21T03:19:57.177Z,85.04
2023-03-21T03:22:26.611Z,85.26
2023-03-21T03:25:02.819Z,85.27
2023-03-21T03:27:35.335Z,85.29
2023-03-21T03:30:02.496Z,84.96
2023-03-21T03:32:31.465Z,84.94
2023-03-21T03:34:58.829Z,84.70
2023-03-21T03:37:27.129Z,86.28
2023-03-21T03:39:53.535Z,85.41
2023-03-21T03:42:31.820Z,86.48
2023-03-21T03:44:58.470Z,85.88
2023-03-21T03:47:44.694Z,85.47
2023-03-21T03:50:41.240Z,86.11
2023-03-21T03:53:18.640Z,86.08
2023-03-21T03:55:46.288Z,85.43
2023-03-21T03:58:22.116Z,85.60
2023-03-21T04:00:49.779Z,86.21
2023-03-21T04:03:16.283Z,85.55
2023-03-21T04:05:46.276Z,86.51
2023-03-21T04:08:13.943Z,86.42
2023-03-21T04:10:40.856Z,85.92
2023-03-21T04:13:07.473Z,86.29
2023-03-21T04:15:33.988Z,86.07
2023-03-21T04:18:00.483Z,86.25
2023-03-21T04:20:36.640Z,86.35
2023-03-21T04:23:04.007Z,86.07
2023-03-21T04:25:34.084Z,86.04
2023-03-21T04:28:00.925Z,86.11
2023-03-21T04:30:27.414Z,85.59
2023-03-21T04:32:57.049Z,86.14
2023-03-21T04:35:24.526Z,86.31
2023-03-21T04:37:51.368Z,85.58
2023-03-21T04:40:18.887Z,86.27
2023-03-21T04:42:46.520Z,86.45
2023-03-21T04:45:13.980Z,85.90
2023-03-21T04:47:41.683Z,85.88
2023-03-21T04:50:09.039Z,86.32
2023-03-21T04:52:35.540Z,86.16
2023-03-21T04:55:02.256Z,85.78
2023-03-21T04:57:28.728Z,86.09
2023-03-21T04:59:55.516Z,86.35
2023-03-21T05:02:22.056Z,85.99
2023-03-21T05:04:48.502Z,85.61
2023-03-21T05:07:14.920Z,86.35
2023-03-21T05:09:41.414Z,86.46
2023-03-21T05:12:07.877Z,86.78
2023-03-21T05:14:34.346Z,86.75
2023-03-21T05:17:05.430Z,86.42
2023-03-21T05:19:35.769Z,86.14
2023-03-21T05:22:04.630Z,86.34
2023-03-21T05:24:32.100Z,86.52
2023-03-21T05:27:02.524Z,86.15
2023-03-21T05:29:32.892Z,86.44
2023-03-21T05:32:00.035Z,88.91
2023-03-21T05:34:27.092Z,89.42
2023-03-21T05:36:53.662Z,88.48
2023-03-21T05:39:20.384Z,90.38
2023-03-21T05:41:46.864Z,89.18
2023-03-21T05:44:13.468Z,88.69
2023-03-21T05:46:39.950Z,88.38
2023-03-21T05:49:06.499Z,88.29
2023-03-21T05:51:33.007Z,88.48
2023-03-21T05:53:59.442Z,88.22
2023-03-21T05:56:25.929Z,88.11
2023-03-21T05:58:52.506Z,88.40
2023-03-21T06:01:19.241Z,89.04
2023-03-21T06:03:45.937Z,88.25
2023-03-21T06:06:12.446Z,88.81
2023-03-21T06:08:38.997Z,89.28
2023-03-21T06:11:07.014Z,90.63
2023-03-21T06:13:33.425Z,89.94
2023-03-21T06:15:59.960Z,91.76
2023-03-21T06:18:26.721Z,92.42
2023-03-21T06:20:54.438Z,92.02
2023-03-21T06:23:20.917Z,93.68
2023-03-21T06:25:48.018Z,92.49
2023-03-21T06:28:14.461Z,92.98
2023-03-21T06:30:40.982Z,92.49
2023-03-21T06:33:07.417Z,93.21
2023-03-21T06:35:33.859Z,93.36
2023-03-21T06:38:00.323Z,94.08
2023-03-21T06:40:26.795Z,94.33
2023-03-21T06:42:53.232Z,95.34
2023-03-21T06:45:19.920Z,96.38
2023-03-21T06:47:46.484Z,95.53
2023-03-21T06:50:13.155Z,95.96
2023-03-21T06:52:39.689Z,94.99
2023-03-21T06:55:06.371Z,95.38
2023-03-21T06:57:33.049Z,94.53
2023-03-21T06:59:59.498Z,96.87
2023-03-21T07:02:25.968Z,97.27
2023-03-21T07:04:52.567Z,96.27
2023-03-21T07:07:19.037Z,96.95
2023-03-21T07:09:45.508Z,96.22
2023-03-21T07:12:12.010Z,97.73
2023-03-21T07:14:38.440Z,98.96
2023-03-21T07:17:04.934Z,100.00
2023-03-21T07:19:31.498Z,98.98
2023-03-21T07:21:57.937Z,98.26
2023-03-21T07:24:24.394Z,98.99
2023-03-21T07:26:51.015Z,98.61
2023-03-21T07:29:17.697Z,98.95
2023-03-21T07:31:44.317Z,99.16
2023-03-21T07:34:10.808Z,99.87
2023-03-21T07:36:37.769Z,99.46
2023-03-21T07:39:04.862Z,99.98
2023-03-21T07:41:31.418Z,100.00
2023-03-21T07:43:57.980Z,100.00
2023-03-21T07:46:24.666Z,100.00
2023-03-21T07:48:51.400Z,99.74
2023-03-21T07:51:17.899Z,100.00
2023-03-21T07:53:48.500Z,100.00
2023-03-21T07:56:15.976Z,99.42
2023-03-21T07:58:42.573Z,99.40
2023-03-21T08:01:09.043Z,99.04
2023-03-21T08:03:35.548Z,100.00
2023-03-21T08:06:02.009Z,100.00
2023-03-21T08:08:28.522Z,100.00
2023-03-21T08:10:57.351Z,100.00
2023-03-21T08:13:23.910Z,100.00
2023-03-21T08:15:50.364Z,100.00
2023-03-21T08:18:16.853Z,99.12
2023-03-21T08:20:43.327Z,97.94
2023-03-21T08:23:09.833Z,96.08
2023-03-21T08:25:36.887Z,95.18
2023-03-21T08:28:03.891Z,94.08
2023-03-21T08:30:30.650Z,93.03
2023-03-21T08:33:00.900Z,93.25
2023-03-21T08:35:28.177Z,92.55
2023-03-21T08:37:54.607Z,92.66
2023-03-21T08:40:21.088Z,91.87
2023-03-21T08:42:47.700Z,91.36
2023-03-21T08:45:17.486Z,91.13
2023-03-21T08:47:44.086Z,89.98
2023-03-21T08:50:12.278Z,90.16
2023-03-21T08:52:38.731Z,89.26
2023-03-21T08:55:05.423Z,86.97
2023-03-21T08:57:31.908Z,86.21
2023-03-21T08:59:58.360Z,84.77
2023-03-21T09:02:24.967Z,84.64
2023-03-21T09:04:54.978Z,84.19
2023-03-21T09:07:22.213Z,83.79
2023-03-21T09:09:58.057Z,83.45
2023-03-21T09:12:29.746Z,83.62
2023-03-21T09:14:56.296Z,82.64
2023-03-21T09:17:22.886Z,82.32
2023-03-21T09:19:50.814Z,83.12
2023-03-21T09:22:21.451Z,82.44
2023-03-21T09:24:49.246Z,81.93
2023-03-21T09:27:18.153Z,80.97
2023-03-21T09:29:45.080Z,81.10
2023-03-21T09:32:12.252Z,80.85
2023-03-21T09:34:41.165Z,79.80
2023-03-21T09:37:13.376Z,78.50
2023-03-21T09:39:41.163Z,79.53
2023-03-21T09:42:08.435Z,79.16
2023-03-21T09:44:41.599Z,79.44
2023-03-21T09:47:14.048Z,79.14
2023-03-21T09:49:43.601Z,78.76
2023-03-21T09:52:13.228Z,77.73
2023-03-21T09:54:43.004Z,77.60
2023-03-21T09:57:15.597Z,78.22
2023-03-21T09:59:42.930Z,77.40
2023-03-21T10:02:22.824Z,77.38
2023-03-21T10:04:49.468Z,77.31
2023-03-21T10:07:18.187Z,78.30
2023-03-21T10:09:45.223Z,78.03
2023-03-21T10:12:30.482Z,77.87
2023-03-21T10:14:58.653Z,77.55
2023-03-21T10:17:40.925Z,77.55
2023-03-21T10:20:11.968Z,78.29
2023-03-21T10:22:38.710Z,77.37
2023-03-21T10:25:06.659Z,76.96
2023-03-21T10:27:34.205Z,75.39
2023-03-21T10:30:01.624Z,76.24
2023-03-21T10:32:28.322Z,75.62
2023-03-21T10:37:24.337Z,75.46
2023-03-21T10:39:52.254Z,75.52
2023-03-21T10:42:26.491Z,74.93
2023-03-21T10:44:54.220Z,75.70
2023-03-21T10:47:23.063Z,75.98
2023-03-21T10:50:06.949Z,74.81
2023-03-21T10:52:35.445Z,73.25
2023-03-21T10:55:07.144Z,73.81
2023-03-21T10:57:33.727Z,73.99
2023-03-21T11:00:01.610Z,73.34
2023-03-21T11:02:33.828Z,73.85
2023-03-21T11:05:08.319Z,72.68
2023-03-21T11:07:37.065Z,72.32
2023-03-21T11:10:17.166Z,71.96
2023-03-21T11:12:47.984Z,71.42
2023-03-21T11:15:26.310Z,72.05
2023-03-21T11:17:52.876Z,70.74
2023-03-21T11:20:19.767Z,70.48
2023-03-21T11:22:47.041Z,69.79
2023-03-21T11:25:25.866Z,70.12
2023-03-21T11:27:54.155Z,69.24
2023-03-21T11:30:22.263Z,70.03
2023-03-21T11:32:52.183Z,69.64
2023-03-21T11:35:21.704Z,68.85
2023-03-21T11:38:10.946Z,68.39
2023-03-21T11:40:39.609Z,69.35
2023-03-21T11:43:18.240Z,70.10
2023-03-21T11:46:20.528Z,72.13
2023-03-21T11:48:51.217Z,73.98
2023-03-21T11:51:36.127Z,75.55
2023-03-21T11:54:02.546Z,76.94
2023-03-21T11:56:38.419Z,77.54
2023-03-21T11:59:15.977Z,77.51
2023-03-21T12:01:49.579Z,77.35
2023-03-21T12:04:18.378Z,77.36
2023-03-21T12:06:52.316Z,78.30
2023-03-21T12:09:33.897Z,78.36
2023-03-21T12:12:24.516Z,78.70
2023-03-21T12:15:02.429Z,78.85
2023-03-21T12:17:53.141Z,79.15
2023-03-21T12:20:31.617Z,78.91
2023-03-21T12:23:01.034Z,81.46
2023-03-21T12:25:31.547Z,81.36
2023-03-21T12:28:09.421Z,80.83
2023-03-21T12:30:44.893Z,81.75
2023-03-21T12:33:20.364Z,81.28
2023-03-21T12:35:49.936Z,81.11
2023-03-21T12:38:17.368Z,80.90
2023-03-21T12:41:05.131Z,80.83
2023-03-21T12:43:51.154Z,80.21
2023-03-21T12:46:29.148Z,80.65
2023-03-21T12:48:59.162Z,79.83
2023-03-21T12:51:29.654Z,79.52
2023-03-21T12:53:59.325Z,80.38
2023-03-21T12:56:35.209Z,78.86
2023-03-21T12:59:10.845Z,78.38
2023-03-21T13:01:38.873Z,78.81
2023-03-21T13:04:17.327Z,78.15
2023-03-21T13:06:45.876Z,77.63
2023-03-21T13:09:37.378Z,79.24
2023-03-21T13:12:19.946Z,79.63
2023-03-21T13:14:54.798Z,80.87
2023-03-21T13:17:41.900Z,81.48
2023-03-21T13:20:08.331Z,82.02
2023-03-21T13:22:34.927Z,82.23
2023-03-21T13:25:05.934Z,83.00
2023-03-21T13:27:33.710Z,83.56
2023-03-21T13:30:06.665Z,83.59
2023-03-21T13:32:40.998Z,83.10
2023-03-21T13:35:16.804Z,82.34
2023-03-21T13:37:44.361Z,82.97
2023-03-21T13:40:24.249Z,83.26
2023-03-21T13:42:53.104Z,83.43
2023-03-21T13:45:24.903Z,83.55
2023-03-21T13:47:52.355Z,83.40
2023-03-21T13:50:18.866Z,82.84
2023-03-21T13:53:03.544Z,83.85
2023-03-21T13:55:41.476Z,84.17
2023-03-21T13:58:26.645Z,84.68
2023-03-21T14:01:16.795Z,84.54
2023-03-21T14:03:45.984Z,85.16
2023-03-21T14:06:12.975Z,84.91
2023-03-21T14:08:41.019Z,85.74
2023-03-21T14:11:10.253Z,85.49
2023-03-21T14:13:48.310Z,86.21
2023-03-21T14:16:18.471Z,86.06
2023-03-21T14:18:55.229Z,85.60
2023-03-21T14:21:24.889Z,85.41
2023-03-21T14:23:58.070Z,85.34
2023-03-21T14:26:25.864Z,85.53
2023-03-21T14:28:52.770Z,85.58
2023-03-21T14:31:19.726Z,85.48
2023-03-21T14:33:49.584Z,86.36
2023-03-21T14:36:20.870Z,87.65
2023-03-21T14:39:07.212Z,87.86
2023-03-21T14:41:34.924Z,87.88
2023-03-21T14:44:04.440Z,89.79
2023-03-21T14:46:30.919Z,88.74
2023-03-21T14:49:09.896Z,88.03
2023-03-21T14:51:36.354Z,87.79
2023-03-21T14:54:02.885Z,87.89
2023-03-21T14:56:29.368Z,87.63
2023-03-21T14:58:56.970Z,87.31
2023-03-21T15:01:32.275Z,86.64
2023-03-21T15:04:00.689Z,86.41
2023-03-21T15:06:27.515Z,85.01
2023-03-21T15:08:56.081Z,84.79
2023-03-21T15:11:29.538Z,84.18
2023-03-21T15:13:56.460Z,83.81
2023-03-21T15:16:23.404Z,83.21
2023-03-21T15:18:50.182Z,83.88
2023-03-21T15:21:19.446Z,82.82
2023-03-21T15:23:47.376Z,82.64
2023-03-21T15:26:18.840Z,82.48
2023-03-21T15:28:47.006Z,82.37
2023-03-21T15:31:18.899Z,82.81
2023-03-21T15:33:47.050Z,82.97
2023-03-21T15:36:18.988Z,82.64
2023-03-21T15:38:48.906Z,82.96
2023-03-21T15:41:21.593Z,83.60
2023-03-21T15:43:53.666Z,84.29
2023-03-21T15:46:32.613Z,83.75
2023-03-21T15:49:17.025Z,83.21
2023-03-21T15:51:43.452Z,83.26
2023-03-21T15:54:27.183Z,83.63
2023-03-21T15:57:09.454Z,83.73
2023-03-21T15:59:38.962Z,83.36
2023-03-21T16:02:05.799Z,83.03
2023-03-21T16:04:32.540Z,83.04
2023-03-21T16:07:01.492Z,82.94
2023-03-21T16:09:28.637Z,82.64
2023-03-21T16:11:56.959Z,82.60
2023-03-21T16:14:24.592Z,82.44
2023-03-21T16:16:51.306Z,82.29
2023-03-21T16:19:17.811Z,82.49
2023-03-21T16:21:44.376Z,82.73
2023-03-21T16:24:12.448Z,82.79
2023-03-21T16:26:45.168Z,82.70
2023-03-21T16:29:13.455Z,83.08
2023-03-21T16:31:40.385Z,83.08
2023-03-21T16:34:07.231Z,83.38
2023-03-21T16:36:36.761Z,83.49
2023-03-21T16:39:11.785Z,83.52
2023-03-21T16:41:38.287Z,83.90
2023-03-21T16:44:04.742Z,84.07
2023-03-21T16:46:31.512Z,84.06
2023-03-21T16:48:58.610Z,84.15
2023-03-21T16:51:29.384Z,83.64
2023-03-21T16:53:56.343Z,83.25
2023-03-21T16:56:24.932Z,82.60
2023-03-21T16:58:53.618Z,82.21
2023-03-21T17:01:20.752Z,82.06
2023-03-21T17:03:48.443Z,83.15
2023-03-21T17:06:16.107Z,83.05
2023-03-21T17:08:43.082Z,82.86
2023-03-21T17:11:16.324Z,83.38
2023-03-21T17:13:49.919Z,84.47
2023-03-21T17:16:17.561Z,85.46
2023-03-21T17:18:44.100Z,85.76
2023-03-21T17:21:16.069Z,86.06
2023-03-21T17:23:42.871Z,85.72
2023-03-21T17:26:10.741Z,85.01
2023-03-21T17:28:37.676Z,85.61
2023-03-21T17:31:04.723Z,85.53
2023-03-21T17:33:31.208Z,84.96
2023-03-21T17:35:57.725Z,84.99
2023-03-21T17:38:24.434Z,86.21
2023-03-21T17:40:51.068Z,85.79
2023-03-21T17:43:19.187Z,87.39
2023-03-21T17:45:45.685Z,88.07
2023-03-21T17:48:12.153Z,88.95
2023-03-21T17:50:39.582Z,88.83
2023-03-21T17:53:06.553Z,88.82
2023-03-21T17:55:33.942Z,88.10
2023-03-21T17:58:00.380Z,88.45
2023-03-21T18:00:28.183Z,87.78
2023-03-21T18:02:54.635Z,87.65
2023-03-21T18:05:24.855Z,87.41
2023-03-21T18:08:09.649Z,86.94
2023-03-21T18:10:37.426Z,86.39
2023-03-21T18:13:04.083Z,86.72
2023-03-21T18:15:31.172Z,87.48
2023-03-21T18:17:57.960Z,87.23
2023-03-21T18:20:44.601Z,86.83
2023-03-21T18:23:14.307Z,86.29
2023-03-21T18:25:41.812Z,85.56
2023-03-21T18:28:11.944Z,85.73
2023-03-21T18:30:56.841Z,85.47
2023-03-21T18:33:27.394Z,86.08
2023-03-21T18:35:59.017Z,86.02
2023-03-21T18:38:26.451Z,85.55
2023-03-21T18:40:52.916Z,85.85
2023-03-21T18:46:06.021Z,85.37
2023-03-21T18:48:34.130Z,85.23
2023-03-21T18:51:00.999Z,85.58
2023-03-21T18:53:27.790Z,85.75
2023-03-21T18:55:54.375Z,86.09
2023-03-21T18:58:21.371Z,85.70
2023-03-21T19:00:49.515Z,85.98
2023-03-21T19:03:26.953Z,85.81
2023-03-21T19:05:59.585Z,86.00
2023-03-21T19:08:26.076Z,85.37
2023-03-21T19:10:53.128Z,85.38
2023-03-21T19:13:19.704Z,85.29
2023-03-21T19:15:49.386Z,85.68
2023-03-21T19:18:37.723Z,86.12
2023-03-21T19:21:03.580Z,85.99
2023-03-21T19:23:40.971Z,86.45
2023-03-21T19:26:16.838Z,86.14
2023-03-21T19:28:43.284Z,85.97
2023-03-21T19:31:09.946Z,85.98
2023-03-21T19:33:36.867Z,85.68
2023-03-21T19:36:17.598Z,86.13
2023-03-21T19:38:47.562Z,85.83
2023-03-21T19:41:14.045Z,85.75
2023-03-21T19:43:45.449Z,85.74
2023-03-21T19:46:20.015Z,85.04
2023-03-21T19:48:46.633Z,85.17
2023-03-21T19:51:27.674Z,84.95
2023-03-21T19:53:55.546Z,85.94
2023-03-21T19:56:26.199Z,86.93
2023-03-21T19:58:53.512Z,86.15
2023-03-21T20:01:20.131Z,86.57
2023-03-21T20:03:47.278Z,86.62
2023-03-21T20:06:13.803Z,86.74
2023-03-21T20:09:13.726Z,86.70
2023-03-21T20:11:27.297Z,86.09
2023-03-21T20:13:53.822Z,86.26
2023-03-21T20:16:20.715Z,86.30
2023-03-21T20:18:47.504Z,86.58
2023-03-21T20:21:17.950Z,86.51
2023-03-21T20:23:49.288Z,87.23
2023-03-21T20:26:16.464Z,87.27
2023-03-21T20:28:56.133Z,87.02
2023-03-21T20:31:26.256Z,87.14
2023-03-21T20:33:53.204Z,87.41
2023-03-21T20:36:38.558Z,87.43
2023-03-21T20:39:06.674Z,87.55
2023-03-21T20:41:33.144Z,87.53
2023-03-21T20:46:48.075Z,87.64
2023-03-21T20:49:15.445Z,87.71
2023-03-21T20:54:29.861Z,87.40
2023-03-21T20:56:57.243Z,88.26
2023-03-21T20:59:27.752Z,88.66
2023-03-21T21:01:55.750Z,88.45
2023-03-21T21:04:23.128Z,88.25
2023-03-21T21:06:53.858Z,87.96
2023-03-21T21:09:20.898Z,88.18
2023-03-21T21:12:06.150Z,88.33
2023-03-21T21:14:35.791Z,89.03
2023-03-21T21:17:15.504Z,88.83
2023-03-21T21:19:52.349Z,87.90
2023-03-21T21:22:18.962Z,87.67
2023-03-21T21:24:45.416Z,87.80
2023-03-21T21:27:12.066Z,88.24
2023-03-21T21:29:38.583Z,88.61
2023-03-21T21:32:05.382Z,87.88
2023-03-21T21:34:32.365Z,88.22
2023-03-21T21:36:58.922Z,88.60
2023-03-21T21:39:26.569Z,87.67
2023-03-21T21:41:53.419Z,87.33
2023-03-21T21:44:19.952Z,87.27
2023-03-21T21:46:46.481Z,87.73
2023-03-21T21:49:13.019Z,87.90
2023-03-21T21:51:41.306Z,88.03
2023-03-21T21:54:07.747Z,88.34
2023-03-21T21:56:35.945Z,87.81
2023-03-21T21:59:04.058Z,88.64
2023-03-21T22:01:31.152Z,88.31
2023-03-21T22:04:06.159Z,88.59
2023-03-21T22:06:33.505Z,88.27
2023-03-21T22:08:59.985Z,88.36
2023-03-21T22:11:26.474Z,88.06
2023-03-21T22:13:52.926Z,88.62
2023-03-21T22:16:19.461Z,88.22
2023-03-21T22:18:45.934Z,87.85
2023-03-21T22:21:12.454Z,88.47
2023-03-21T22:23:41.461Z,88.59
2023-03-21T22:26:08.395Z,88.73
2023-03-21T22:28:34.922Z,89.00
2023-03-21T22:31:08.528Z,89.26
2023-03-21T22:33:35.912Z,88.96
2023-03-21T22:36:02.378Z,88.92
2023-03-21T22:38:28.939Z,89.14
2023-03-21T22:40:59.418Z,89.71
2023-03-21T22:43:26.194Z,89.74
2023-03-21T22:45:53.071Z,90.07
2023-03-21T22:48:20.012Z,89.56
2023-03-21T22:50:46.540Z,89.59
2023-03-21T22:53:13.326Z,90.57
2023-03-21T22:55:40.473Z,90.45
2023-03-21T22:58:07.294Z,90.97
2023-03-21T23:00:33.788Z,91.12
2023-03-21T23:03:00.364Z,90.72
2023-03-21T23:05:27.026Z,90.74
2023-03-21T23:07:53.766Z,90.73
2023-03-21T23:10:20.491Z,90.43
2023-03-21T23:12:46.988Z,90.41
2023-03-21T23:15:13.441Z,90.26
2023-03-21T23:17:39.896Z,90.67
2023-03-21T23:20:07.895Z,90.79
2023-03-21T23:22:34.937Z,90.31
2023-03-21T23:25:01.574Z,90.25
2023-03-21T23:27:28.300Z,90.27
2023-03-21T23:29:56.645Z,90.24
2023-03-21T23:32:23.347Z,90.64
2023-03-21T23:34:49.788Z,89.94
2023-03-21T23:37:16.247Z,90.07
2023-03-21T23:39:45.214Z,90.37
2023-03-21T23:42:11.785Z,90.33
2023-03-21T23:44:38.287Z,90.79
2023-03-21T23:47:05.059Z,90.20
2023-03-21T23:49:33.766Z,90.71
2023-03-21T23:52:00.321Z,90.88
2023-03-21T23:54:26.927Z,90.85
2023-03-21T23:56:53.384Z,90.54
2023-03-21T23:59:19.851Z,89.81
